Time;durP1;ratioP1;P1;durP2;ratioP2;P2;SDS_P1;SDS_P2;PMS_P1;PMS_P2;Temp;Humidity;BMP_temperature;BMP_pressure;BME280_temperature;BME280_humidity;BME280_pressure;Samples;Min_cycle;Max_cycle;Signal;HPM_P1;HPM_P2
2021/03/27 00:01:43;;;;;;;35.17;20.80;;;;;;;13.23;41.66;101133.48;1735788;82;21213;-79
2021/03/27 00:04:42;;;;;;;33.55;19.98;;;;;;;13.21;41.67;101137.63;1733897;82;21169;-81
2021/03/27 00:07:26;;;;;;;;;;;;;;;13.20;41.79;101135.95;1735029;82;21213;-80
2021/03/27 00:10:24;;;;;;;33.67;20.27;;;;;;;13.18;41.83;101139.81;1732223;82;20282;-83
2021/03/27 00:12:58;;;;;;;31.93;20.52;;;;;;;13.13;41.98;101137.59;1716596;82;21751;-83
2021/03/27 00:15:51;;;;;;;33.50;21.20;;;;;;;13.09;42.13;101138.91;1703700;84;21212;-81
2021/03/27 00:18:58;;;;;;;33.85;20.75;;;;;;;13.11;42.16;101132.02;1680731;84;21126;-83
2021/03/27 00:21:47;;;;;;;36.00;21.07;;;;;;;13.11;42.22;101134.71;1704535;84;21145;-84
2021/03/27 00:24:26;;;;;;;35.78;21.25;;;;;;;13.10;42.33;101135.22;1704400;84;21113;-78
2021/03/27 00:27:04;;;;;;;35.95;21.57;;;;;;;13.09;42.35;101138.91;1665486;84;21188;-79
2021/03/27 00:29:39;;;;;;;34.40;20.50;;;;;;;13.05;42.41;101136.20;1703239;84;21213;-81
2021/03/27 00:32:17;;;;;;;35.43;20.90;;;;;;;13.04;42.63;101139.89;1703182;84;21486;-81
2021/03/27 00:34:48;;;;;;;;;;;;;;;13.04;42.66;101141.23;1706838;83;21233;-81
2021/03/27 00:37:20;;;;;;;31.52;20.02;;;;;;;13.03;42.67;101138.18;1697589;83;20275;-83
2021/03/27 00:40:07;;;;;;;39.63;22.48;;;;;;;13.01;42.80;101142.05;1722239;83;21543;-79
2021/03/27 00:42:40;;;;;;;34.90;20.50;;;;;;;13.01;42.90;101143.39;1723289;83;21150;-82
2021/03/27 00:45:14;;;;;;;34.18;21.05;;;;;;;12.99;42.99;101139.52;1729125;82;21070;-81
2021/03/27 00:47:55;;;;;;;35.20;20.80;;;;;;;12.97;43.14;101137.47;1733049;82;21164;-82
2021/03/27 00:50:38;;;;;;;31.07;20.88;;;;;;;12.97;43.21;101140.66;1747847;81;21172;-80
2021/03/27 00:53:17;;;;;;;32.65;20.23;;;;;;;12.97;43.23;101140.16;1748599;81;21208;-79
2021/03/27 00:55:54;;;;;;;34.03;20.45;;;;;;;12.95;43.27;101139.48;1721701;83;21199;-79
2021/03/27 00:58:29;;;;;;;35.08;21.17;;;;;;;12.92;43.43;101139.80;1728343;83;21175;-80
2021/03/27 01:01:03;;;;;;;31.23;21.17;;;;;;;12.93;43.46;101139.63;1728496;83;21096;-83
2021/03/27 01:03:38;;;;;;;33.78;21.15;;;;;;;12.94;43.52;101136.44;1728644;83;21551;-77
2021/03/27 01:06:53;;;;;;;34.78;21.27;;;;;;;12.92;43.54;101138.45;1728575;83;21653;-82
2021/03/27 01:09:39;;;;;;;35.75;21.55;;;;;;;12.91;43.62;101135.42;1672126;83;21655;-80
2021/03/27 01:12:35;;;;;;;36.75;22.75;;;;;;;12.92;43.57;101142.48;1727009;83;21210;-80
2021/03/27 01:15:18;;;;;;;35.55;21.25;;;;;;;12.91;43.59;101137.61;1700816;83;21211;-79
2021/03/27 01:17:50;;;;;;;32.93;20.40;;;;;;;12.91;43.63;101134.08;1726627;83;21442;-77
2021/03/27 01:20:27;;;;;;;32.93;21.07;;;;;;;12.92;43.62;101137.11;1727839;83;21175;-79
2021/03/27 01:22:55;;;;;;;37.00;21.37;;;;;;;12.90;43.67;101136.44;1728289;83;21168;-82
2021/03/27 01:25:27;;;;;;;33.42;21.40;;;;;;;12.89;43.69;101133.38;1728602;83;21227;-82
2021/03/27 01:28:03;;;;;;;31.55;22.00;;;;;;;12.87;43.67;101134.05;1702315;83;21141;-79
2021/03/27 01:30:39;;;;;;;32.83;21.52;;;;;;;12.88;43.71;101133.04;1730240;83;21093;-77
2021/03/27 01:33:33;;;;;;;33.30;21.37;;;;;;;12.90;43.70;101136.44;1728865;83;21168;-78
2021/03/27 01:36:17;;;;;;;32.20;21.75;;;;;;;12.91;43.77;101138.11;1727619;83;21203;-83
2021/03/27 01:38:55;;;;;;;35.65;22.40;;;;;;;12.91;43.72;101137.61;1727625;83;21192;-83
2021/03/27 01:41:37;;;;;;;34.35;21.77;;;;;;;12.92;43.63;101137.11;1700791;83;21231;-80
2021/03/27 01:44:12;;;;;;;35.30;21.60;;;;;;;12.94;43.56;101140.47;1690851;83;21231;-81
2021/03/27 01:47:07;;;;;;;34.10;21.27;;;;;;;12.91;43.62;101135.42;1727664;83;21183;-79
2021/03/27 01:50:14;;;;;;;34.35;21.93;;;;;;;12.91;43.63;101138.11;1728654;83;21155;-83
2021/03/27 01:53:16;;;;;;;32.80;21.90;;;;;;;12.88;43.61;101138.41;1728709;83;21105;-85
2021/03/27 01:56:16;;;;;;;35.58;22.98;;;;;;;12.87;43.52;101138.08;1728530;83;21187;-79
2021/03/27 01:59:25;;;;;;;37.15;22.65;;;;;;;12.84;43.57;101139.22;1728648;83;21187;-78
2021/03/27 02:02:10;;;;;;;34.08;22.32;;;;;;;12.83;43.63;101144.77;1728686;83;21239;-80
2021/03/27 02:04:42;;;;;;;39.40;22.22;;;;;;;12.84;43.63;101138.37;1730273;83;21065;-75
2021/03/27 02:07:38;;;;;;;34.60;23.05;;;;;;;12.84;43.64;101135.69;1702414;83;21052;-79
2021/03/27 02:10:31;;;;;;;36.45;23.60;;;;;;;12.82;43.65;101143.92;1725095;83;21168;-81
2021/03/27 02:13:35;;;;;;;36.23;22.62;;;;;;;12.79;43.59;101138.84;1725598;83;21121;-79
2021/03/27 02:16:32;;;;;;;33.18;22.00;;;;;;;12.80;43.58;101142.37;1728755;83;21068;-78
2021/03/27 02:19:37;;;;;;;37.88;23.62;;;;;;;12.81;43.55;101144.06;1728641;83;21104;-76
2021/03/27 02:22:32;;;;;;;39.27;22.80;;;;;;;12.81;43.57;101143.59;1726435;83;21188;-82
2021/03/27 02:25:30;;;;;;;36.40;23.40;;;;;;;12.79;43.60;101145.56;1728635;83;21076;-78
2021/03/27 02:28:35;;;;;;;38.17;23.80;;;;;;;12.78;43.65;101147.92;1729114;83;21611;-82
2021/03/27 02:31:25;;;;;;;34.73;22.50;;;;;;;12.81;43.68;101147.62;1728850;83;21096;-83
2021/03/27 02:34:14;;;;;;;35.98;22.95;;;;;;;12.79;43.69;101145.56;1728628;83;21117;-77
2021/03/27 02:37:05;;;;;;;33.33;22.67;;;;;;;12.80;43.65;101141.03;1728722;83;21087;-81
2021/03/27 02:39:49;;;;;;;35.73;22.52;;;;;;;12.79;43.66;101143.38;1721507;83;21498;-80
2021/03/27 02:42:49;;;;;;;37.60;23.67;;;;;;;12.75;43.70;101150.06;1677867;83;21148;-78
2021/03/27 02:45:34;;;;;;;32.67;22.50;;;;;;;12.74;43.73;101148.39;1728698;83;21164;-78
2021/03/27 02:48:23;;;;;;;37.83;23.92;;;;;;;12.76;43.77;101147.72;1728772;83;21547;-77
2021/03/27 02:51:12;;;;;;;37.65;23.60;;;;;;;12.77;43.79;101148.09;1727887;83;21085;-79
2021/03/27 02:54:15;;;;;;;34.73;23.10;;;;;;;12.77;43.79;101153.47;1728814;83;21082;-79
2021/03/27 02:56:58;;;;;;;35.95;23.67;;;;;;;12.77;43.77;101153.47;1728723;83;21195;-81
2021/03/27 02:59:31;;;;;;;37.33;23.35;;;;;;;12.77;43.78;101154.81;1728734;83;21097;-80
2021/03/27 03:02:24;;;;;;;36.38;22.82;;;;;;;12.76;43.75;101155.78;1728603;83;21160;-82
2021/03/27 03:05:37;;;;;;;39.53;23.70;;;;;;;12.74;43.73;101156.45;1728787;83;21090;-82
2021/03/27 03:08:20;;;;;;;36.55;23.40;;;;;;;12.73;43.66;101152.08;1728898;83;21030;-81
2021/03/27 03:11:23;;;;;;;33.25;22.35;;;;;;;12.70;43.67;101162.13;1702184;83;21047;-83
2021/03/27 03:14:08;;;;;;;34.80;21.87;;;;;;;12.71;43.74;101165.66;1702054;83;21515;-80
2021/03/27 03:17:15;;;;;;;35.13;23.25;;;;;;;12.73;43.74;101165.52;1700490;83;21168;-80
2021/03/27 03:20:01;;;;;;;35.40;22.40;;;;;;;12.75;43.76;101168.89;1729391;83;21062;-76
2021/03/27 03:22:45;;;;;;;32.42;22.10;;;;;;;12.74;43.75;101171.23;1701813;81;21572;-81
2021/03/27 03:25:19;;;;;;;33.10;22.30;;;;;;;12.74;43.67;101168.05;1698938;84;21666;-85
2021/03/27 03:28:01;;;;;;;34.43;23.27;;;;;;;12.74;43.67;101173.92;1695311;84;21177;-83
2021/03/27 03:31:08;;;;;;;33.60;21.97;;;;;;;12.72;43.69;101175.91;1676674;84;21743;-76
2021/03/27 03:34:04;;;;;;;37.23;23.02;;;;;;;12.70;43.70;101181.45;1727100;83;21216;-79
2021/03/27 03:37:02;;;;;;;36.68;22.15;;;;;;;12.81;43.41;101179.01;1672574;84;21207;-80
2021/03/27 03:39:41;;;;;;;38.05;24.12;;;;;;;12.84;43.42;101177.36;1698475;84;21093;-78
2021/03/27 03:42:34;;;;;;;38.28;22.45;;;;;;;12.84;43.37;101177.36;1728439;83;21105;-80
2021/03/27 03:45:28;;;;;;;38.63;23.38;;;;;;;12.84;43.36;101174.17;1698310;84;21186;-78
2021/03/27 03:48:22;;;;;;;37.20;23.07;;;;;;;12.87;43.33;101182.44;1692531;84;21218;-77
2021/03/27 03:51:31;;;;;;;46.88;27.32;;;;;;;12.86;43.37;101184.29;1702364;84;21188;-79
2021/03/27 03:54:23;;;;;;;38.17;24.30;;;;;;;12.69;43.65;101187.33;1698360;84;21199;-78
2021/03/27 03:57:20;;;;;;;39.23;24.75;;;;;;;12.82;43.45;101182.06;1678671;85;21165;-81
2021/03/27 03:59:55;;;;;;;36.63;23.35;;;;;;;12.82;43.40;101180.72;1707536;84;21172;-81
2021/03/27 04:02:32;;;;;;;40.58;22.73;;;;;;;12.74;43.59;101188.71;1698903;84;21175;-79
2021/03/27 04:05:09;;;;;;;;;;;;;;;12.81;43.50;101185.73;1665161;85;21217;-78
2021/03/27 04:07:40;;;;;;;37.88;22.25;;;;;;;12.69;43.63;101191.36;1708776;84;20228;-80
2021/03/27 04:10:19;;;;;;;39.20;23.40;;;;;;;12.81;43.46;101189.29;1708008;84;21177;-79
2021/03/27 04:13:01;;;;;;;33.45;22.95;;;;;;;12.79;43.53;101189.09;1708425;84;21180;-80
2021/03/27 04:15:40;;;;;;;39.35;23.52;;;;;;;12.82;43.46;101188.28;1708441;84;21073;-81
2021/03/27 04:18:17;;;;;;;40.58;23.77;;;;;;;12.89;43.34;101193.88;1699661;84;21569;-79
2021/03/27 04:21:18;;;;;;;35.70;23.38;;;;;;;12.88;43.31;101197.06;1662087;85;21595;-81
2021/03/27 04:24:05;;;;;;;34.83;21.73;;;;;;;12.89;43.35;101197.91;1703718;84;21200;-80
2021/03/27 04:26:41;;;;;;;38.02;23.10;;;;;;;12.92;43.32;101197.61;1697111;84;21111;-78
2021/03/27 04:29:35;;;;;;;39.10;24.32;;;;;;;12.92;43.32;101196.27;1662586;85;21082;-79
2021/03/27 04:32:30;;;;;;;40.38;24.67;;;;;;;12.80;43.57;101206.90;1708623;84;21113;-76
2021/03/27 04:35:16;;;;;;;39.40;23.77;;;;;;;12.76;43.62;101208.20;1700803;84;21151;-80
2021/03/27 04:38:04;;;;;;;33.65;22.80;;;;;;;12.72;43.70;101204.13;1682420;85;21094;-80
2021/03/27 04:40:49;;;;;;;35.03;22.98;;;;;;;12.68;43.72;101208.49;1710691;84;21121;-80
2021/03/27 04:43:25;;;;;;;36.42;23.10;;;;;;;12.65;43.77;101209.29;1701524;84;21205;-81
2021/03/27 04:46:09;;;;;;;34.20;22.93;;;;;;;12.64;43.85;101208.95;1682153;84;21078;-82
2021/03/27 04:48:51;;;;;;;36.98;23.00;;;;;;;12.64;43.94;101209.79;1711908;84;21127;-80
2021/03/27 04:51:43;;;;;;;43.65;23.30;;;;;;;12.66;43.91;101215.84;1684474;80;21144;-78
2021/03/27 04:54:21;;;;;;;38.90;23.90;;;;;;;12.68;43.91;101219.24;1712124;82;21118;-78
2021/03/27 04:57:12;;;;;;;44.55;26.48;;;;;;;12.73;43.90;101220.63;1710728;80;21136;-76
2021/03/27 04:59:54;;;;;;;35.65;23.35;;;;;;;12.76;43.88;101218.45;1712304;80;21156;-76
2021/03/27 05:02:56;;;;;;;34.60;22.37;;;;;;;12.78;43.90;101225.05;1713448;80;21201;-76
2021/03/27 05:05:53;;;;;;;40.05;24.32;;;;;;;12.83;43.82;101233.48;1711772;79;21146;-77
2021/03/27 05:08:55;;;;;;;38.48;24.15;;;;;;;12.85;43.84;101235.03;1711795;79;21066;-78
2021/03/27 05:11:55;;;;;;;35.98;22.52;;;;;;;12.91;43.83;101233.06;1710693;83;21210;-78
2021/03/27 05:15:11;;;;;;;44.80;23.35;;;;;;;12.94;43.81;101231.89;1708041;84;21246;-78
2021/03/27 05:17:52;;;;;;;34.40;22.37;;;;;;;12.98;43.71;101234.63;1708396;84;21464;-79
2021/03/27 05:20:27;;;;;;;34.23;22.73;;;;;;;13.06;43.64;101231.16;1708796;84;21186;-79
2021/03/27 05:23:34;;;;;;;33.83;22.00;;;;;;;13.12;43.58;101229.19;1712314;82;21206;-83
2021/03/27 05:26:16;;;;;;;38.70;22.35;;;;;;;13.17;43.42;101230.44;1707495;84;21181;-79
2021/03/27 05:29:08;;;;;;;39.08;23.05;;;;;;;13.27;43.38;101233.56;1719470;83;21696;-77
2021/03/27 05:32:12;;;;;;;44.95;23.27;;;;;;;13.36;43.15;101232.63;1670518;83;21220;-79
2021/03/27 05:34:43;;;;;;;43.52;24.63;;;;;;;13.46;42.99;101237.39;1731822;82;21217;-82
2021/03/27 05:37:40;;;;;;;38.20;24.07;;;;;;;13.56;42.92;101233.25;1698136;84;21169;-79
2021/03/27 05:41:00;;;;;;;37.07;23.03;;;;;;;13.63;42.79;101244.58;1675915;84;21189;-80
2021/03/27 05:44:12;;;;;;;41.10;23.30;;;;;;;13.71;42.68;101241.91;1701270;84;21802;-78
2021/03/27 05:47:20;;;;;;;36.93;21.80;;;;;;;13.88;42.47;101248.74;1726648;82;21216;-80
2021/03/27 05:49:56;;;;;;;35.68;21.10;;;;;;;13.89;42.29;101239.66;1718036;82;21189;-80
2021/03/27 05:53:04;;;;;;;31.85;22.27;;;;;;;14.03;42.22;101247.13;1704381;82;21704;-82
2021/03/27 05:56:18;;;;;;;40.92;22.50;;;;;;;14.10;42.02;101246.83;1715396;82;21181;-78
2021/03/27 05:58:54;;;;;;;34.50;22.95;;;;;;;14.21;41.83;101249.22;1720238;82;21193;-78
2021/03/27 06:01:47;;;;;;;42.00;22.85;;;;;;;14.28;41.74;101258.02;1718182;83;21708;-79
2021/03/27 06:04:55;;;;;;;36.73;22.42;;;;;;;14.35;41.57;101255.00;1694350;83;21234;-80
2021/03/27 06:07:47;;;;;;;39.90;22.70;;;;;;;14.35;41.59;101244.22;1719637;83;21190;-83
2021/03/27 06:10:37;;;;;;;36.35;22.17;;;;;;;14.55;41.13;101255.11;1718809;83;21264;-80
2021/03/27 06:13:49;;;;;;;33.70;22.00;;;;;;;14.67;40.95;101256.49;1707304;82;21232;-79
2021/03/27 06:16:58;;;;;;;35.00;22.55;;;;;;;14.81;40.87;101260.39;1701820;84;21204;-81
2021/03/27 06:20:07;;;;;;;38.48;24.07;;;;;;;14.92;40.76;101264.10;1701684;84;21207;-82
2021/03/27 06:23:02;;;;;;;33.85;23.22;;;;;;;15.05;40.63;101274.91;1701563;84;21905;-79
2021/03/27 06:25:52;;;;;;;37.55;22.27;;;;;;;15.16;40.39;101267.31;1700878;82;21192;-80
2021/03/27 06:28:38;;;;;;;40.38;24.50;;;;;;;15.27;40.00;101272.06;1708488;82;21237;-78
2021/03/27 06:31:37;;;;;;;41.92;23.45;;;;;;;15.34;39.82;101270.36;1731290;82;21260;-81
2021/03/27 06:34:38;;;;;;;40.15;23.92;;;;;;;15.42;39.70;101268.50;1731353;82;21239;-78
2021/03/27 06:37:36;;;;;;;35.58;24.43;;;;;;;15.56;39.71;101271.52;1731337;82;21258;-81
2021/03/27 06:40:17;;;;;;;36.30;23.80;;;;;;;15.70;39.25;101274.91;1732031;82;21520;-83
2021/03/27 06:43:16;;;;;;;37.17;23.30;;;;;;;15.80;38.99;101277.41;1706663;82;21664;-85
2021/03/27 06:46:42;;;;;;;38.38;23.77;;;;;;;15.88;39.03;101276.05;1732040;82;21208;-77
2021/03/27 06:49:37;;;;;;;36.90;24.07;;;;;;;15.88;38.93;101274.70;1731273;82;21467;-80
2021/03/27 06:52:43;;;;;;;40.78;25.27;;;;;;;15.81;39.13;101277.27;1721566;82;21237;-82
2021/03/27 06:55:47;;;;;;;38.63;24.02;;;;;;;15.76;39.38;101279.64;1700323;84;21169;-85
2021/03/27 06:59:11;;;;;;;40.00;24.80;;;;;;;15.70;39.50;101281.66;1701407;83;21273;-78
2021/03/27 07:02:18;;;;;;;35.45;23.20;;;;;;;15.65;39.73;101286.22;1702646;83;21733;-79
2021/03/27 07:05:21;;;;;;;42.73;25.27;;;;;;;15.59;39.79;101283.34;1727545;81;21221;-80
2021/03/27 07:08:32;;;;;;;36.25;23.45;;;;;;;15.53;39.88;101284.84;1728183;83;21483;-81
2021/03/27 07:11:33;;;;;;;40.50;24.00;;;;;;;15.51;40.11;101287.39;1728779;83;21797;-81
2021/03/27 07:14:26;;;;;;;39.42;24.43;;;;;;;15.48;40.33;101280.46;1729345;83;21420;-78
2021/03/27 07:17:05;;;;;;;36.55;24.85;;;;;;;15.48;40.23;101285.35;1726358;83;21205;-80
2021/03/27 07:19:54;;;;;;;42.23;24.25;;;;;;;15.54;40.29;101289.25;1729259;83;21225;-83
2021/03/27 07:23:02;;;;;;;39.00;24.60;;;;;;;15.70;40.00;101286.55;1736090;81;21881;-79
2021/03/27 07:26:13;;;;;;;35.52;24.63;;;;;;;15.87;39.84;101293.28;1696451;83;21220;-80
2021/03/27 07:29:31;;;;;;;46.28;26.48;;;;;;;16.11;39.69;101286.44;1727201;82;21217;-82
2021/03/27 07:32:53;;;;;;;43.87;25.62;;;;;;;16.43;39.32;101291.39;1730722;82;21663;-83
2021/03/27 07:35:53;;;;;;;41.42;26.12;;;;;;;16.76;39.04;101291.23;1714197;83;21217;-83
2021/03/27 07:39:13;;;;;;;47.35;27.10;;;;;;;17.09;38.30;101287.31;1719457;83;21225;-79
2021/03/27 07:42:23;;;;;;;39.63;25.20;;;;;;;17.38;37.69;101284.36;1725237;83;21467;-82
2021/03/27 07:45:40;;;;;;;38.53;24.80;;;;;;;17.72;37.43;101283.89;1705886;82;21081;-83
2021/03/27 07:48:34;;;;;;;36.03;23.62;;;;;;;18.03;37.10;101287.80;1722102;82;21224;-76
2021/03/27 07:51:55;;;;;;;33.55;23.27;;;;;;;18.36;36.54;101287.44;1739200;82;21192;-82
2021/03/27 07:54:55;;;;;;;37.23;23.05;;;;;;;18.61;36.09;101294.72;1694830;84;21749;-83
2021/03/27 07:58:09;;;;;;;32.80;21.70;;;;;;;18.95;35.62;101294.11;1842860;76;22444;-79
2021/03/27 08:01:25;;;;;;;35.48;23.07;;;;;;;19.09;35.34;101296.44;1814083;78;21256;-82
2021/03/27 08:04:21;;;;;;;31.25;21.07;;;;;;;19.29;34.89;101296.09;1755218;81;21218;-77
2021/03/27 08:06:57;;;;;;;35.43;21.77;;;;;;;19.54;34.55;101298.42;1812707;79;21196;-82
2021/03/27 08:09:36;;;;;;;37.53;20.35;;;;;;;19.74;34.40;101297.55;1784575;79;21177;-80
2021/03/27 08:12:41;;;;;;;29.82;20.55;;;;;;;19.91;34.09;101295.38;1780691;80;21213;-81
2021/03/27 08:15:55;;;;;;;29.52;19.92;;;;;;;20.08;33.74;101298.63;1781331;77;21185;-80
2021/03/27 08:18:55;;;;;;;28.05;19.80;;;;;;;20.23;33.55;101299.85;1742338;81;21630;-80
2021/03/27 08:21:28;;;;;;;27.42;18.10;;;;;;;20.39;33.18;101303.58;1740881;81;21224;-78
2021/03/27 08:24:53;;;;;;;27.60;18.48;;;;;;;20.54;32.82;101302.13;1728688;80;21212;-80
2021/03/27 08:27:50;;;;;;;27.27;19.20;;;;;;;20.61;32.29;101301.61;1786089;79;21514;-80
2021/03/27 08:30:54;;;;;;;39.10;18.52;;;;;;;20.69;32.25;101297.88;1814094;79;21157;-79
2021/03/27 08:33:42;;;;;;;35.98;18.12;;;;;;;20.77;32.08;101297.18;1812209;79;21178;-79
2021/03/27 08:37:05;;;;;;;24.30;18.40;;;;;;;20.86;31.83;101296.48;1786378;79;21249;-81
2021/03/27 08:40:11;;;;;;;24.32;17.77;;;;;;;20.96;31.77;101301.52;1799927;79;21228;-78
2021/03/27 08:43:25;;;;;;;25.30;17.80;;;;;;;21.02;31.67;101293.88;1785641;77;21212;-80
2021/03/27 08:46:42;;;;;;;22.70;16.75;;;;;;;21.08;31.66;101290.87;1811470;79;21153;-78
2021/03/27 08:49:38;;;;;;;30.40;18.57;;;;;;;21.12;31.45;101289.38;1812854;78;21201;-78
2021/03/27 08:52:38;;;;;;;31.68;18.65;;;;;;;21.16;31.50;101290.13;1770134;80;21197;-77
2021/03/27 08:55:48;;;;;;;25.17;15.75;;;;;;;21.21;31.29;101298.54;1737313;82;21235;-81
2021/03/27 08:58:44;;;;;;;22.95;16.20;;;;;;;21.24;31.40;101287.20;1743814;80;21259;-76
2021/03/27 09:01:38;;;;;;;20.90;14.68;;;;;;;21.31;31.24;101291.84;1793249;77;21185;-82
2021/03/27 09:04:48;;;;;;;22.50;15.93;;;;;;;21.35;30.84;101287.66;1796755;77;21181;-78
2021/03/27 09:07:44;;;;;;;23.20;16.70;;;;;;;21.40;30.90;101291.98;1793327;77;21174;-77
2021/03/27 09:10:30;;;;;;;22.35;15.00;;;;;;;21.40;30.75;101291.98;1795800;77;21816;-79
2021/03/27 09:13:20;;;;;;;27.98;15.15;;;;;;;21.34;30.89;101287.34;1791917;79;21177;-81
2021/03/27 09:16:32;;;;;;;21.80;14.87;;;;;;;21.25;30.89;101292.96;1781220;79;21205;-81
2021/03/27 09:19:24;;;;;;;23.45;13.95;;;;;;;21.19;30.97;101286.99;1780459;79;21177;-79
2021/03/27 09:22:30;;;;;;;21.90;15.00;;;;;;;21.09;30.65;101288.45;1792339;79;21185;-79
2021/03/27 09:25:21;;;;;;;25.50;14.68;;;;;;;20.94;30.77;101294.09;1780573;79;21164;-79
2021/03/27 09:28:01;;;;;;;20.82;15.32;;;;;;;20.76;30.83;101292.78;1781821;79;21705;-77
2021/03/27 09:30:58;;;;;;;24.80;15.25;;;;;;;20.64;31.07;101290.33;1779196;79;21200;-81
2021/03/27 09:33:40;;;;;;;22.73;15.38;;;;;;;20.55;31.21;101293.44;1779236;80;21219;-81
2021/03/27 09:36:55;;;;;;;23.42;15.10;;;;;;;20.40;31.40;101294.92;1779844;80;21612;-82
2021/03/27 09:39:30;;;;;;;22.25;14.50;;;;;;;20.28;31.69;101290.56;1780576;80;21149;-80
2021/03/27 09:42:12;;;;;;;19.82;14.53;;;;;;;20.21;31.97;101284.23;1798222;77;21644;-78
2021/03/27 09:45:02;;;;;;;25.08;14.07;;;;;;;20.19;31.85;101293.12;1785790;79;21192;-81
2021/03/27 09:47:48;;;;;;;23.85;13.45;;;;;;;20.15;31.58;101290.48;1744288;81;21237;-77
2021/03/27 09:50:39;;;;;;;23.60;14.03;;;;;;;20.06;31.24;101290.33;1729011;81;21227;-82
2021/03/27 09:53:12;;;;;;;22.60;14.40;;;;;;;19.96;31.61;101285.26;1737676;81;21765;-84
2021/03/27 09:56:11;;;;;;;22.02;14.73;;;;;;;19.89;31.57;101288.44;1737819;81;21345;-81
2021/03/27 09:59:13;;;;;;;21.97;13.85;;;;;;;19.81;31.70;101289.45;1746242;79;21177;-80
2021/03/27 10:01:54;;;;;;;19.77;13.83;;;;;;;19.72;32.08;101284.69;1783393;79;21189;-76
2021/03/27 10:04:47;;;;;;;20.02;13.28;;;;;;;19.65;32.08;101287.86;1789760;79;21251;-81
2021/03/27 10:07:37;;;;;;;17.82;13.68;;;;;;;19.60;32.00;101288.98;1810901;77;21489;-82
2021/03/27 10:10:19;;;;;;;21.93;13.53;;;;;;;19.46;31.78;101281.20;1755974;81;21174;-80
2021/03/27 10:13:02;;;;;;;20.68;14.30;;;;;;;19.36;31.92;101287.50;1741971;81;21184;-82
2021/03/27 10:15:51;;;;;;;21.25;13.72;;;;;;;19.25;32.07;101287.48;1710770;81;21196;-78
2021/03/27 10:18:43;;;;;;;19.75;13.48;;;;;;;19.17;32.24;101289.00;1747198;81;21616;-79
2021/03/27 10:21:57;;;;;;;22.13;14.35;;;;;;;19.06;32.06;101285.44;1745212;80;21152;-82
2021/03/27 10:24:51;;;;;;;19.23;13.53;;;;;;;18.96;32.21;101287.63;1812456;79;21674;-82
2021/03/27 10:27:58;;;;;;;20.45;13.95;;;;;;;18.87;32.19;101285.56;1812385;79;21201;-80
2021/03/27 10:30:55;;;;;;;25.15;14.28;;;;;;;18.79;31.99;101280.77;1802804;79;21188;-80
2021/03/27 10:33:57;;;;;;;19.17;13.38;;;;;;;18.72;32.36;101280.19;1810992;79;21707;-77
2021/03/27 10:37:02;;;;;;;20.23;12.80;;;;;;;18.71;32.46;101283.94;1734859;82;21237;-84
2021/03/27 10:40:00;;;;;;;18.40;12.20;;;;;;;18.76;31.91;101287.44;1748508;81;21181;-77
2021/03/27 10:42:33;;;;;;;20.45;13.03;;;;;;;18.75;31.37;101288.44;1780601;80;21169;-79
2021/03/27 10:45:32;;;;;;;28.87;13.98;;;;;;;18.73;31.40;101285.93;1790822;79;21997;-82
2021/03/27 10:48:13;;;;;;;23.98;13.65;;;;;;;18.71;31.53;101288.49;1786684;79;21165;-79
2021/03/27 10:51:05;;;;;;;21.40;13.03;;;;;;;18.69;31.64;101287.34;1753575;80;21487;-81
2021/03/27 10:54:16;;;;;;;20.92;12.80;;;;;;;18.70;31.71;101284.95;1837316;77;21177;-85
2021/03/27 10:57:34;;;;;;;22.80;12.98;;;;;;;18.70;31.74;101281.39;1782838;77;21431;-80
2021/03/27 11:00:34;;;;;;;23.40;12.50;;;;;;;18.70;31.67;101286.30;1783712;78;21121;-77
2021/03/27 11:03:30;;;;;;;15.63;10.93;;;;;;;18.73;31.24;101285.93;1789801;79;21150;-78
2021/03/27 11:06:30;;;;;;;17.37;10.78;;;;;;;18.74;30.73;101286.25;1770210;79;21655;-78
2021/03/27 11:09:29;;;;;;;20.10;12.73;;;;;;;18.73;30.65;101290.00;1770480;79;21216;-78
2021/03/27 11:12:45;;;;;;;22.70;13.20;;;;;;;18.69;30.77;101284.63;1784891;78;21189;-82
2021/03/27 11:15:21;;;;;;;21.23;14.63;;;;;;;18.65;30.95;101290.08;1700269;82;21240;-79
2021/03/27 11:18:31;;;;;;;20.92;14.53;;;;;;;18.59;31.07;101292.20;1722971;82;21220;-76
2021/03/27 11:21:05;;;;;;;24.30;15.72;;;;;;;18.52;31.23;101288.56;1778071;79;21181;-81
2021/03/27 11:24:06;;;;;;;20.77;13.80;;;;;;;18.43;31.39;101289.70;1807751;78;21201;-84
2021/03/27 11:27:29;;;;;;;22.65;14.80;;;;;;;18.36;31.56;101291.50;1760346;80;21408;-80
2021/03/27 11:30:41;;;;;;;21.10;14.78;;;;;;;18.30;31.53;101296.30;1771993;80;21165;-81
2021/03/27 11:33:17;;;;;;;20.30;13.93;;;;;;;18.25;31.58;101296.35;1772698;80;21674;-81
2021/03/27 11:35:52;;;;;;;21.12;14.30;;;;;;;18.21;31.61;101291.00;1772504;80;21165;-82
2021/03/27 11:38:31;;;;;;;18.85;12.73;;;;;;;18.16;31.60;101293.92;1727670;80;21529;-82
2021/03/27 11:41:18;;;;;;;21.25;12.78;;;;;;;18.15;31.39;101294.97;1774905;78;21157;-79
2021/03/27 11:44:14;;;;;;;18.75;12.05;;;;;;;18.12;31.23;101288.55;1731590;82;21166;-78
2021/03/27 11:46:48;;;;;;;18.85;12.53;;;;;;;18.10;30.87;101295.52;1721083;83;21109;-84
2021/03/27 11:49:42;;;;;;;21.73;13.13;;;;;;;18.06;30.74;101296.09;1772133;79;21204;-80
2021/03/27 11:52:24;;;;;;;19.70;12.70;;;;;;;18.03;30.70;101289.67;1780213;79;21147;-80
2021/03/27 11:55:11;;;;;;;19.00;11.45;;;;;;;18.02;30.53;101284.77;1754137;79;21670;-81
2021/03/27 11:57:55;;;;;;;19.15;12.10;;;;;;;17.97;30.39;101286.69;1718821;82;21225;-77
2021/03/27 12:01:02;;;;;;;18.77;12.85;;;;;;;17.97;30.32;101288.55;1799062;79;21229;-77
2021/03/27 12:03:51;;;;;;;17.15;11.57;;;;;;;17.95;30.15;101286.56;1772777;80;21169;-81
2021/03/27 12:06:31;;;;;;;17.57;12.13;;;;;;;17.95;30.10;101283.84;1789968;79;21153;-78
2021/03/27 12:09:47;;;;;;;16.87;11.60;;;;;;;17.96;30.17;101280.10;1765617;79;21715;-80
2021/03/27 12:12:27;;;;;;;22.30;13.05;;;;;;;17.94;30.06;101282.14;1779793;78;21165;-79
2021/03/27 12:14:58;;;;;;;17.80;12.68;;;;;;;17.94;30.13;101282.14;1771648;80;21476;-81
2021/03/27 12:18:04;;;;;;;18.20;11.53;;;;;;;17.93;30.20;101277.75;1772015;80;21232;-81
2021/03/27 12:20:43;;;;;;;15.75;11.28;;;;;;;17.93;30.25;101280.47;1771693;80;21208;-80
2021/03/27 12:23:43;;;;;;;17.80;12.40;;;;;;;17.93;30.18;101285.89;1752963;80;21860;-77
2021/03/27 12:26:35;;;;;;;18.42;12.68;;;;;;;17.93;30.03;101281.30;1768983;79;21251;-81
2021/03/27 12:29:24;;;;;;;17.12;12.15;;;;;;;17.93;30.01;101283.17;1772736;80;21197;-77
2021/03/27 12:32:36;;;;;;;;;;;;;;;;;;;;;
2021/03/27 12:35:32;;;;;;;22.67;14.20;;;;;;;17.95;30.00;101270.30;1887678;75;22124;-82
2021/03/27 12:38:26;;;;;;;20.77;13.58;;;;;;;17.89;30.37;101280.51;1780007;80;21188;-79
2021/03/27 12:41:05;;;;;;;22.45;14.25;;;;;;;17.87;30.65;101278.52;1779010;78;21157;-81
2021/03/27 12:43:35;;;;;;;18.75;14.10;;;;;;;17.86;30.78;101279.03;1819585;78;21177;-79
2021/03/27 12:46:35;;;;;;;23.00;15.75;;;;;;;17.83;30.71;101274.48;1781628;80;21185;-83
2021/03/27 12:49:49;;;;;;;20.52;14.85;;;;;;;17.79;30.69;101276.72;1707029;83;21243;-77
2021/03/27 12:53:01;;;;;;;23.85;14.75;;;;;;;17.79;31.01;101281.30;1804940;79;20911;-78
2021/03/27 12:55:55;;;;;;;23.87;15.20;;;;;;;17.71;31.06;101280.83;1752932;81;21177;-83
2021/03/27 12:58:42;;;;;;;22.07;16.00;;;;;;;17.70;31.18;101277.80;1745884;82;21224;-77
2021/03/27 13:01:40;;;;;;;21.57;15.00;;;;;;;17.67;31.24;101280.38;1758034;79;21224;-76
2021/03/27 13:04:47;;;;;;;25.08;14.98;;;;;;;17.29;31.76;101284.11;1739883;80;21204;-79
2021/03/27 13:07:28;;;;;;;23.52;15.20;;;;;;;17.52;31.41;101289.48;1725281;81;21301;-79
2021/03/27 13:10:21;;;;;;;24.18;16.15;;;;;;;17.24;31.98;101285.48;1786709;79;21209;-79